createdAt,value
2019-02-23T00:01:48.949Z,5.27
2019-02-23T00:04:35.300Z,5.21
2019-02-23T00:07:03.107Z,5.21
2019-02-23T00:09:49.799Z,5.16
2019-02-23T00:12:36.195Z,5.13
2019-02-23T00:18:09.494Z,5.11
2019-02-23T00:20:40.845Z,5.05
2019-02-23T00:23:27.268Z,5.00
2019-02-23T00:25:54.958Z,5.00
2019-02-23T00:28:22.582Z,5.00
2019-02-23T00:31:08.924Z,4.96
2019-02-23T00:33:36.447Z,4.97
2019-02-23T00:36:23.173Z,4.98
2019-02-23T00:38:52.332Z,4.98
2019-02-23T00:41:31.748Z,4.89
2019-02-23T00:43:49.412Z,4.89
2019-02-23T00:46:35.752Z,4.81
2019-02-23T00:51:55.326Z,4.78
2019-02-23T00:57:29.656Z,4.66
2019-02-23T00:59:57.308Z,4.62
2019-02-23T01:02:38.879Z,4.56
2019-02-23T01:05:13.029Z,4.48
2019-02-23T01:07:59.633Z,4.44
2019-02-23T01:10:27.266Z,4.44
2019-02-23T01:12:54.905Z,4.38
2019-02-23T01:15:42.823Z,4.31
2019-02-23T01:18:12.153Z,4.32
2019-02-23T01:20:58.818Z,4.34
2019-02-23T01:23:26.547Z,4.34
2019-02-23T01:26:13.234Z,4.32
2019-02-23T01:28:59.581Z,4.28
2019-02-23T01:31:48.640Z,4.28
2019-02-23T01:37:23.093Z,4.18
2019-02-23T01:39:53.172Z,4.14
2019-02-23T01:42:20.699Z,4.14
2019-02-23T01:45:07.022Z,4.09
2019-02-23T01:47:35.101Z,4.09
2019-02-23T01:50:02.932Z,4.06
2019-02-23T01:52:30.633Z,4.02
2019-02-23T01:54:58.283Z,3.98
2019-02-23T01:57:44.682Z,3.92
2019-02-23T02:00:12.250Z,3.92
2019-02-23T02:02:58.922Z,3.88
2019-02-23T02:05:26.374Z,3.87
2019-02-23T02:07:54.072Z,3.87
2019-02-23T02:10:21.740Z,3.87
2019-02-23T02:12:49.525Z,3.88
2019-02-23T02:15:17.093Z,3.86
2019-02-23T02:17:44.631Z,3.85
2019-02-23T02:20:12.203Z,3.85
2019-02-23T02:22:39.801Z,3.86
2019-02-23T02:25:07.408Z,3.86
2019-02-23T02:27:35.099Z,3.84
2019-02-23T02:30:21.502Z,3.83
2019-02-23T02:32:49.086Z,3.75
2019-02-23T02:38:21.872Z,3.67
2019-02-23T02:40:49.483Z,3.63
2019-02-23T02:43:35.877Z,3.59
2019-02-23T02:46:22.228Z,3.54
2019-02-23T02:49:08.834Z,3.53
2019-02-23T02:51:36.455Z,3.52
2019-02-23T02:54:04.093Z,3.52
2019-02-23T02:56:31.773Z,3.51
2019-02-23T02:59:18.097Z,3.51
2019-02-23T03:01:45.632Z,3.51
2019-02-23T03:04:13.403Z,3.50
2019-02-23T03:06:59.782Z,3.51
2019-02-23T03:09:27.466Z,3.56
2019-02-23T03:11:55.005Z,3.56
2019-02-23T03:14:41.362Z,3.56
2019-02-23T03:17:09.071Z,3.55
2019-02-23T03:19:36.748Z,3.56
2019-02-23T03:22:23.145Z,3.51
2019-02-23T03:24:50.902Z,3.47
2019-02-23T03:27:37.185Z,3.42
2019-02-23T03:30:04.863Z,3.34
2019-02-23T03:32:32.525Z,3.34
2019-02-23T03:35:18.844Z,3.29
2019-02-23T03:37:46.385Z,3.29
2019-02-23T03:40:14.148Z,3.31
2019-02-23T03:43:00.500Z,3.25
2019-02-23T03:45:28.425Z,3.25
2019-02-23T03:47:56.096Z,3.22
2019-02-23T03:50:23.851Z,3.19
2019-02-23T03:53:10.189Z,3.18
2019-02-23T03:55:56.545Z,3.20
2019-02-23T03:58:42.896Z,3.21
2019-02-23T04:01:10.500Z,3.19
2019-02-23T04:03:38.075Z,3.19
2019-02-23T04:06:24.500Z,3.13
2019-02-23T04:09:10.848Z,3.13
2019-02-23T04:11:57.549Z,3.02
2019-02-23T04:14:25.233Z,3.02
2019-02-23T04:17:13.308Z,2.94
2019-02-23T04:19:40.892Z,2.94
2019-02-23T04:22:08.425Z,2.90
2019-02-23T04:24:36.159Z,2.89
2019-02-23T04:27:24.181Z,2.91
2019-02-23T04:29:51.873Z,2.91
2019-02-23T04:32:19.528Z,2.89
2019-02-23T04:34:47.233Z,2.86
2019-02-23T04:37:14.832Z,2.86
2019-02-23T04:40:01.184Z,2.92
2019-02-23T04:42:47.570Z,2.86
2019-02-23T04:45:15.057Z,2.86
2019-02-23T04:48:01.407Z,2.83
2019-02-23T04:50:32.021Z,2.74
2019-02-23T04:53:18.710Z,2.73
2019-02-23T04:56:05.062Z,2.59
2019-02-23T04:58:51.663Z,2.46
2019-02-23T05:01:19.309Z,2.46
2019-02-23T05:03:47.486Z,2.43
2019-02-23T05:06:15.044Z,2.43
2019-02-23T05:08:42.699Z,2.44
2019-02-23T05:11:29.009Z,2.40
2019-02-23T05:13:56.870Z,2.42
2019-02-23T05:16:24.624Z,2.45
2019-02-23T05:18:52.193Z,2.50
2019-02-23T05:21:38.622Z,2.54
2019-02-23T05:24:06.144Z,2.54
2019-02-23T05:26:33.715Z,2.58
2019-02-23T05:29:32.120Z,2.62
2019-02-23T05:32:08.144Z,2.65
2019-02-23T05:34:54.534Z,2.66
2019-02-23T05:37:40.813Z,2.67
2019-02-23T05:40:08.407Z,2.67
2019-02-23T05:43:00.892Z,2.64
2019-02-23T05:45:23.913Z,2.64
2019-02-23T05:47:51.457Z,2.62
2019-02-23T05:50:19.149Z,2.60
2019-02-23T05:53:05.501Z,2.58
2019-02-23T05:55:33.202Z,2.58
2019-02-23T05:58:00.861Z,2.42
2019-02-23T06:00:28.611Z,2.42
2019-02-23T06:06:20.069Z,2.13
2019-02-23T06:08:48.125Z,2.13
2019-02-23T06:11:34.535Z,2.08
2019-02-23T06:14:02.087Z,2.08
2019-02-23T06:16:48.770Z,2.07
2019-02-23T06:19:16.243Z,2.01
2019-02-23T06:21:53.533Z,1.94
2019-02-23T06:24:31.879Z,1.90
2019-02-23T06:26:59.400Z,1.90
2019-02-23T06:29:26.998Z,1.85
2019-02-23T06:32:13.364Z,1.82
2019-02-23T06:34:41.127Z,1.75
2019-02-23T06:37:08.683Z,1.70
2019-02-23T06:39:36.654Z,1.65
2019-02-23T06:42:23.075Z,1.62
2019-02-23T06:45:09.450Z,1.67
2019-02-23T06:47:55.842Z,1.67
2019-02-23T06:50:42.163Z,1.67
2019-02-23T06:56:15.104Z,1.74
2019-02-23T06:58:42.582Z,1.74
2019-02-23T07:01:29.150Z,1.78
2019-02-23T07:03:56.770Z,1.92
2019-02-23T07:06:43.505Z,2.00
2019-02-23T07:09:25.222Z,2.08
2019-02-23T07:11:59.132Z,2.17
2019-02-23T07:14:26.621Z,2.28
2019-02-23T07:17:13.036Z,2.38
2019-02-23T07:19:44.215Z,2.38
2019-02-23T07:22:30.615Z,2.47
2019-02-23T07:24:58.153Z,2.53
2019-02-23T07:27:44.506Z,2.60
2019-02-23T07:30:30.878Z,2.64
2019-02-23T07:33:29.562Z,2.72
2019-02-23T07:35:46.537Z,2.79
2019-02-23T07:38:35.505Z,2.90
2019-02-23T07:41:02.941Z,3.00
2019-02-23T07:43:49.360Z,3.19
2019-02-23T07:46:18.915Z,3.19
2019-02-23T07:49:05.338Z,3.28
2019-02-23T07:51:33.221Z,3.36
2019-02-23T07:54:01.131Z,3.45
2019-02-23T07:56:47.502Z,3.68
2019-02-23T07:59:33.899Z,3.68
2019-02-23T08:02:01.545Z,3.89
2019-02-23T08:04:47.885Z,4.01
2019-02-23T08:07:15.428Z,4.01
2019-02-23T08:10:01.928Z,4.30
2019-02-23T08:12:29.580Z,4.30
2019-02-23T08:17:48.379Z,4.86
2019-02-23T08:25:54.183Z,5.16
2019-02-23T08:28:21.983Z,5.45
2019-02-23T08:30:49.611Z,5.45
2019-02-23T08:33:17.260Z,5.69
2019-02-23T08:36:03.613Z,5.69
2019-02-23T08:38:31.155Z,6.01
2019-02-23T08:41:17.545Z,6.01
2019-02-23T08:44:04.183Z,6.17
2019-02-23T08:46:52.226Z,6.35
2019-02-23T08:49:19.836Z,7.09
2019-02-23T08:51:47.654Z,7.09
2019-02-23T08:54:15.341Z,7.52
2019-02-23T08:56:42.922Z,7.86
2019-02-23T08:59:10.966Z,8.40
2019-02-23T09:01:38.496Z,8.53
2019-02-23T09:04:06.038Z,8.53
2019-02-23T09:06:52.395Z,8.61
2019-02-23T09:09:23.603Z,8.69
2019-02-23T09:12:10.178Z,8.76
2019-02-23T09:14:37.646Z,8.95
2019-02-23T09:17:07.141Z,8.95
2019-02-23T09:19:53.513Z,9.07
2019-02-23T09:22:21.109Z,9.12
2019-02-23T09:25:07.541Z,9.10
2019-02-23T09:27:35.101Z,9.09
2019-02-23T09:30:02.699Z,8.98
2019-02-23T09:32:49.803Z,8.98
2019-02-23T09:35:17.526Z,8.96
2019-02-23T09:38:03.902Z,8.96
2019-02-23T09:40:50.341Z,9.01
2019-02-23T09:46:06.184Z,9.08
2019-02-23T09:48:52.536Z,9.14
2019-02-23T09:51:20.055Z,9.14
2019-02-23T09:54:06.459Z,9.20
2019-02-23T09:56:33.964Z,9.27
2019-02-23T09:59:20.349Z,9.50
2019-02-23T10:01:47.878Z,9.50
2019-02-23T10:04:15.472Z,9.66
2019-02-23T10:07:01.894Z,10.01
2019-02-23T10:09:29.422Z,10.40
2019-02-23T10:12:15.831Z,10.40
2019-02-23T10:14:43.441Z,11.91
2019-02-23T10:17:29.856Z,12.90
2019-02-23T10:23:04.230Z,14.20
2019-02-23T10:25:31.932Z,16.14
2019-02-23T10:28:18.267Z,16.14
2019-02-23T10:30:45.896Z,17.00
2019-02-23T10:33:13.377Z,17.71
2019-02-23T10:35:59.823Z,18.52
2019-02-23T10:38:27.374Z,18.52
2019-02-23T10:41:06.694Z,18.87
2019-02-23T10:43:42.914Z,19.12
2019-02-23T10:46:10.559Z,19.04
2019-02-23T10:48:38.359Z,19.12
2019-02-23T10:51:05.836Z,19.36
2019-02-23T10:56:26.485Z,19.68
2019-02-23T10:58:54.135Z,19.68
2019-02-23T11:01:40.461Z,20.15
2019-02-23T11:04:08.163Z,20.15
2019-02-23T11:06:54.515Z,20.35
2019-02-23T11:12:29.472Z,20.39
2019-02-23T11:14:46.345Z,20.39
2019-02-23T11:17:32.777Z,20.67
2019-02-23T11:20:00.731Z,21.26
2019-02-23T11:22:28.348Z,21.26
2019-02-23T11:24:57.718Z,21.52
2019-02-23T11:27:25.317Z,21.80
2019-02-23T11:29:52.772Z,22.23
2019-02-23T11:32:22.588Z,22.23
2019-02-23T11:34:50.040Z,22.22
2019-02-23T11:37:17.630Z,22.26
2019-02-23T11:39:45.507Z,22.31
2019-02-23T11:42:13.048Z,22.15
2019-02-23T11:44:40.942Z,22.09
2019-02-23T11:47:08.420Z,21.98
2019-02-23T11:49:37.159Z,21.81
2019-02-23T11:52:04.761Z,21.51
2019-02-23T11:54:32.582Z,21.38
2019-02-23T11:57:00.592Z,21.24
2019-02-23T11:59:28.177Z,21.35
2019-02-23T12:01:57.041Z,21.61
2019-02-23T12:04:24.604Z,21.56
2019-02-23T12:06:52.182Z,21.34
2019-02-23T12:09:20.088Z,21.16
2019-02-23T12:11:49.277Z,21.07
2019-02-23T12:14:16.823Z,21.07
2019-02-23T12:16:46.744Z,20.99
2019-02-23T12:19:14.376Z,21.13
2019-02-23T12:21:43.073Z,21.39
2019-02-23T12:24:10.843Z,21.83
2019-02-23T12:26:38.447Z,22.36
2019-02-23T12:29:05.950Z,22.71
2019-02-23T12:31:36.593Z,22.98
2019-02-23T12:34:05.486Z,23.53
2019-02-23T12:36:36.635Z,23.92
2019-02-23T12:39:04.647Z,23.92
2019-02-23T12:41:35.677Z,24.18
2019-02-23T12:44:06.035Z,24.10
2019-02-23T12:46:33.861Z,23.84
2019-02-23T12:49:01.463Z,23.43
2019-02-23T12:51:28.976Z,23.19
2019-02-23T12:54:02.969Z,22.99
2019-02-23T12:56:32.723Z,22.92
2019-02-23T12:59:00.292Z,22.83
2019-02-23T13:01:31.015Z,22.68
2019-02-23T13:03:58.979Z,22.48
2019-02-23T13:06:26.524Z,22.37
2019-02-23T13:08:55.650Z,22.27
2019-02-23T13:11:23.524Z,21.98
2019-02-23T13:13:52.239Z,21.98
2019-02-23T13:16:20.056Z,21.77
2019-02-23T13:18:47.524Z,21.25
2019-02-23T13:21:15.139Z,21.25
2019-02-23T13:23:45.858Z,20.93
2019-02-23T13:26:13.371Z,20.64
2019-02-23T13:28:40.891Z,20.33
2019-02-23T13:31:11.948Z,19.97
2019-02-23T13:33:39.588Z,19.50
2019-02-23T13:36:10.039Z,19.50
2019-02-23T13:38:37.914Z,19.38
2019-02-23T13:41:05.466Z,19.25
2019-02-23T13:43:34.439Z,19.18
2019-02-23T13:46:02.315Z,19.11
2019-02-23T13:48:29.829Z,18.96
2019-02-23T13:50:57.368Z,18.77
2019-02-23T13:53:25.969Z,18.57
2019-02-23T13:55:53.839Z,18.16
2019-02-23T13:58:21.357Z,18.03
2019-02-23T14:00:49.236Z,18.03
2019-02-23T14:03:16.858Z,17.97
2019-02-23T14:05:44.407Z,17.92
2019-02-23T14:08:13.364Z,17.87
2019-02-23T14:10:40.886Z,17.83
2019-02-23T14:13:08.493Z,17.74
2019-02-23T14:15:36.312Z,17.45
2019-02-23T14:18:07.838Z,17.36
2019-02-23T14:20:38.190Z,17.29
2019-02-23T14:23:06.409Z,17.23
2019-02-23T14:25:36.820Z,17.20
2019-02-23T14:28:06.621Z,17.20
2019-02-23T14:30:34.187Z,17.31
2019-02-23T14:33:02.120Z,17.58
2019-02-23T14:35:29.652Z,17.74
2019-02-23T14:37:57.443Z,17.74
2019-02-23T14:40:25.060Z,17.75
2019-02-23T14:42:52.645Z,17.76
2019-02-23T14:45:27.755Z,17.76
2019-02-23T14:47:56.800Z,17.73
2019-02-23T14:50:26.662Z,17.73
2019-02-23T14:52:56.550Z,17.73
2019-02-23T14:55:30.052Z,17.74
2019-02-23T14:58:00.568Z,17.75
2019-02-23T15:00:28.158Z,17.79
2019-02-23T15:02:58.466Z,17.79
2019-02-23T15:05:26.291Z,17.89
2019-02-23T15:07:53.915Z,17.97
2019-02-23T15:10:21.459Z,17.97
2019-02-23T15:12:52.403Z,18.07
2019-02-23T15:15:20.252Z,18.05
2019-02-23T15:17:50.175Z,18.05
2019-02-23T15:20:17.700Z,17.88
2019-02-23T15:22:45.318Z,17.58
2019-02-23T15:25:13.615Z,17.46
2019-02-23T15:27:41.248Z,17.46
2019-02-23T15:30:08.853Z,17.63
2019-02-23T15:32:40.092Z,17.63
2019-02-23T15:35:10.397Z,18.06
2019-02-23T15:37:46.139Z,18.42
2019-02-23T15:40:14.027Z,18.42
2019-02-23T15:42:43.240Z,19.22
2019-02-23T15:45:17.977Z,19.34
2019-02-23T15:47:48.578Z,18.88
2019-02-23T15:50:22.017Z,17.98
2019-02-23T15:52:49.651Z,17.98
2019-02-23T15:55:25.894Z,17.06
2019-02-23T15:57:59.542Z,16.35
2019-02-23T16:00:30.278Z,15.74
2019-02-23T16:03:00.829Z,15.21
2019-02-23T16:05:28.380Z,14.40
2019-02-23T16:07:56.225Z,14.08
2019-02-23T16:10:24.430Z,14.08
2019-02-23T16:12:52.173Z,13.77
2019-02-23T16:15:21.278Z,13.52
2019-02-23T16:17:52.012Z,13.31
2019-02-23T16:20:19.675Z,12.96
2019-02-23T16:22:47.546Z,12.96
2019-02-23T16:25:16.922Z,12.81
2019-02-23T16:27:44.445Z,12.52
2019-02-23T16:30:12.348Z,12.52
2019-02-23T16:32:45.036Z,12.26
2019-02-23T16:35:22.434Z,12.26
2019-02-23T16:37:49.581Z,11.97
2019-02-23T16:40:22.440Z,11.97
2019-02-23T16:42:52.692Z,11.68
2019-02-23T16:45:20.741Z,11.68
2019-02-23T16:47:50.210Z,11.52
2019-02-23T16:50:17.520Z,11.36
2019-02-23T16:52:50.318Z,11.00
2019-02-23T16:55:17.852Z,10.84
2019-02-23T16:57:45.343Z,10.69
2019-02-23T17:00:13.217Z,10.54
2019-02-23T17:02:42.820Z,10.54
2019-02-23T17:05:10.037Z,10.38
2019-02-23T17:07:37.845Z,10.20
2019-02-23T17:10:05.436Z,10.04
2019-02-23T17:12:33.155Z,9.75
2019-02-23T17:15:05.109Z,9.75
2019-02-23T17:17:32.658Z,9.62
2019-02-23T17:20:02.948Z,9.49
2019-02-23T17:22:33.569Z,9.35
2019-02-23T17:25:03.902Z,9.23
2019-02-23T17:27:36.443Z,9.12
2019-02-23T17:30:05.403Z,9.00
2019-02-23T17:32:43.384Z,8.87
2019-02-23T17:35:11.136Z,8.63
2019-02-23T17:37:40.939Z,8.63
2019-02-23T17:40:16.890Z,8.53
2019-02-23T17:42:44.785Z,8.41
2019-02-23T17:45:12.323Z,8.18
2019-02-23T17:47:39.872Z,8.18
2019-02-23T17:50:11.263Z,8.00
2019-02-23T17:52:38.737Z,8.00
2019-02-23T17:55:06.355Z,7.91
2019-02-23T17:57:36.287Z,7.84
2019-02-23T18:00:05.972Z,7.78
2019-02-23T18:02:33.487Z,7.71
2019-02-23T18:05:01.270Z,7.51
2019-02-23T18:07:33.885Z,7.51
2019-02-23T18:10:03.499Z,7.43
2019-02-23T18:12:31.240Z,7.27
2019-02-23T18:15:01.810Z,7.27
2019-02-23T18:17:29.308Z,7.20
2019-02-23T18:20:01.332Z,7.18
2019-02-23T18:22:31.266Z,7.14
2019-02-23T18:25:17.635Z,7.07
2019-02-23T18:31:09.198Z,7.04
2019-02-23T18:33:36.878Z,6.93
2019-02-23T18:36:23.205Z,6.93
2019-02-23T18:38:50.870Z,6.87
2019-02-23T18:41:37.143Z,6.79
2019-02-23T18:44:23.986Z,6.71
2019-02-23T18:47:11.566Z,6.71
2019-02-23T18:49:58.549Z,6.61
2019-02-23T18:52:44.983Z,6.61
2019-02-23T18:55:12.657Z,6.53
2019-02-23T18:58:11.471Z,6.53
2019-02-23T19:03:42.726Z,6.43
2019-02-23T19:06:29.150Z,6.39
2019-02-23T19:09:15.534Z,6.39
2019-02-23T19:12:14.219Z,6.36
2019-02-23T19:14:50.047Z,6.36
2019-02-23T19:17:50.313Z,6.26
2019-02-23T19:20:26.378Z,6.24
2019-02-23T19:23:12.778Z,6.21
2019-02-23T19:25:59.138Z,6.15
2019-02-23T19:28:28.454Z,6.08
2019-02-23T19:31:14.821Z,6.08
2019-02-23T19:33:42.421Z,5.89
2019-02-23T19:38:59.891Z,5.76
2019-02-23T19:41:58.623Z,5.76
2019-02-23T19:47:08.990Z,5.58
2019-02-23T19:49:38.717Z,5.58
2019-02-23T19:52:26.824Z,5.51
2019-02-23T19:55:13.210Z,5.51
2019-02-23T19:58:01.896Z,5.47
2019-02-23T20:00:29.416Z,5.35
2019-02-23T20:03:15.845Z,5.35
2019-02-23T20:05:43.484Z,5.30
2019-02-23T20:08:30.793Z,5.23
2019-02-23T20:10:58.379Z,5.17
2019-02-23T20:13:46.424Z,5.05
2019-02-23T20:16:14.031Z,5.05
2019-02-23T20:19:00.433Z,4.99
2019-02-23T20:27:07.560Z,4.84
2019-02-23T20:29:53.965Z,4.80
2019-02-23T20:32:21.616Z,4.80
2019-02-23T20:34:49.606Z,4.73
2019-02-23T20:40:22.715Z,4.62
2019-02-23T20:43:09.072Z,4.58
2019-02-23T20:45:36.636Z,4.52
2019-02-23T20:48:23.041Z,4.46
2019-02-23T20:50:54.894Z,4.46
2019-02-23T20:53:41.247Z,4.38
2019-02-23T20:56:11.125Z,4.38
2019-02-23T20:58:57.938Z,4.35
2019-02-23T21:01:25.692Z,4.35
2019-02-23T21:04:13.768Z,4.35
2019-02-23T21:06:41.314Z,4.35
2019-02-23T21:09:29.375Z,4.33
2019-02-23T21:12:08.755Z,4.32
2019-02-23T21:14:26.767Z,4.27
2019-02-23T21:16:54.348Z,4.18
2019-02-23T21:19:21.906Z,3.85
2019-02-23T21:22:08.300Z,3.69
2019-02-23T21:24:54.577Z,3.57
2019-02-23T21:27:40.934Z,3.57
2019-02-23T21:30:10.798Z,3.51
2019-02-23T21:32:57.197Z,3.48
2019-02-23T21:35:24.959Z,3.48
2019-02-23T21:38:11.361Z,3.51
2019-02-23T21:40:38.857Z,3.51
2019-02-23T21:43:06.371Z,3.48
2019-02-23T21:45:36.890Z,3.48
2019-02-23T21:48:04.473Z,3.50
2019-02-23T21:50:32.024Z,3.50
2019-02-23T21:52:59.881Z,3.52
2019-02-23T21:55:27.406Z,3.52
2019-02-23T21:57:55.013Z,3.51
2019-02-23T22:00:41.370Z,3.51
2019-02-23T22:03:08.934Z,3.51
2019-02-23T22:05:55.623Z,3.48
2019-02-23T22:08:23.285Z,3.47
2019-02-23T22:11:09.721Z,3.35
2019-02-23T22:13:37.357Z,3.35
2019-02-23T22:16:23.790Z,3.28
2019-02-23T22:21:43.642Z,3.22
2019-02-23T22:24:42.320Z,3.20
2019-02-23T22:27:18.077Z,3.17
2019-02-23T22:30:04.413Z,3.09
2019-02-23T22:32:50.817Z,3.09
2019-02-23T22:35:18.494Z,3.04
2019-02-23T22:38:08.645Z,3.00
2019-02-23T22:40:36.201Z,2.97
2019-02-23T22:43:22.605Z,2.93
2019-02-23T22:45:50.528Z,2.92
2019-02-23T22:48:36.903Z,2.92
2019-02-23T22:51:04.518Z,2.94
2019-02-23T22:53:33.874Z,2.95
2019-02-23T22:56:20.191Z,2.95
2019-02-23T22:59:06.623Z,2.99
2019-02-23T23:01:53.420Z,2.99
2019-02-23T23:04:40.178Z,3.03
2019-02-23T23:07:26.591Z,3.03
2019-02-23T23:10:25.081Z,3.06
2019-02-23T23:13:01.039Z,3.09
2019-02-23T23:15:47.444Z,3.13
2019-02-23T23:18:33.711Z,3.13
2019-02-23T23:21:20.027Z,3.13
2019-02-23T23:24:06.380Z,3.13
2019-02-23T23:26:55.547Z,3.10
2019-02-23T23:29:41.972Z,3.03
2019-02-23T23:35:14.788Z,2.95
2019-02-23T23:38:01.545Z,2.86
2019-02-23T23:40:47.968Z,2.83
2019-02-23T23:43:15.741Z,2.82
2019-02-23T23:46:02.162Z,2.79
2019-02-23T23:48:31.107Z,2.79
2019-02-23T23:51:17.508Z,2.75
2019-02-23T23:59:29.494Z,2.79
